• Join FlightAware (Why Join?)
  • Login
  • US Flag 
04:01PM EDT


 

Airport Tracker/Info


-or-


 

Live Flight TrackerFlight Track Log ✈ QXE2397 ✈ 29-Aug-2013 ✈ KMSO - KSEA

Flight Track Log - Related Links

Times and Time Zones

All times are in EDT time to prevent confusion due to time zone crossing. See the QXE2397 flight status page for this flight to view local times or setup timezone preferences in your user account.

Time Position Orientation Groundspeed Altitude Reporting Facility
EDT Latitude Longitude Course Direction KTS MPH feet Rate Location/Type
10:29PM 47.1970 -114.6342 294° West  Level FlightAware Approximate
10:30PM 47.2257 -114.7437 296° West  Level FlightAware Approximate
10:31PM 47.2612 -114.8502 296° West  Level FlightAware Approximate
10:32PM 47.2807 -114.9649 282° West  Level FlightAware Approximate
10:33PM 47.3108 -115.0747 294° West  Level FlightAware Approximate
10:34PM 47.3411 -115.1848 288° West  Level FlightAware Approximate
10:35PM 47.3663 -115.2977 288° West  Level FlightAware Approximate
10:36PM 47.3913 -115.4108 288° West  Level FlightAware Approximate
10:37PM 47.4197 -115.5221 292° West  Level FlightAware Approximate
10:38PM 47.4498 -115.6326 292° West  Level FlightAware Approximate
10:39PM 47.4541 -115.7515 275° West  Level FlightAware Approximate
10:40PM 47.4611 -115.8702 275° West  Level FlightAware Approximate
10:41PM 47.4680 -115.9889 275° West  Level FlightAware Approximate
10:42PM 47.4748 -116.1077 275° West  Level FlightAware Approximate
10:43PM 47.4814 -116.2265 275° West  Level FlightAware Approximate
10:44PM 47.4879 -116.3453 275° West  Level FlightAware Approximate
10:45PM 47.4943 -116.4642 275° West  Level FlightAware Approximate
10:46PM 47.5006 -116.5831 275° West  Level FlightAware Approximate
10:47PM 47.5068 -116.7020 274° West  Level FlightAware Approximate
10:48PM 47.5128 -116.8209 274° West  Level FlightAware Approximate
10:49PM 47.5187 -116.9399 274° West  Level FlightAware Approximate
10:50PM 47.5245 -117.0589 274° West  Level FlightAware Approximate
10:51PM 47.5302 -117.1779 274° West  Level FlightAware Approximate
10:52PM 47.5357 -117.2970 274° West  Level FlightAware Approximate
10:53PM 47.5411 -117.4161 274° West  Level FlightAware Approximate
10:54PM 47.5465 -117.5352 274° West  Level FlightAware Approximate
10:55PM 47.5542 -117.6539 279° West  Level FlightAware Approximate
10:56PM 47.5673 -117.7717 279° West  Level FlightAware Approximate
10:57PM 47.5803 -117.8895 279° West  Level FlightAware Approximate
10:58PM 47.5917 -118.0078 278° West  Level FlightAware Approximate
10:59PM 47.6024 -118.1262 278° West  Level FlightAware Approximate
11:00PM 47.6131 -118.2447 278° West  Level FlightAware Approximate
11:01PM 47.6236 -118.3632 278° West  Level FlightAware Approximate
11:02PM 47.6340 -118.4817 277° West  Level FlightAware Approximate
11:03PM 47.6442 -118.6003 277° West  Level FlightAware Approximate
11:04PM 47.6544 -118.7190 277° West  Level FlightAware Approximate
11:05PM 47.6642 -118.8350 277° West  Level FlightAware Approximate
11:06PM 47.6738 -118.9511 277° West  Level FlightAware Approximate
11:07PM 47.6834 -119.0672 277° West  Level FlightAware Approximate
11:08PM 47.6928 -119.1833 277° West  Level FlightAware Approximate
11:09PM 47.7022 -119.2995 277° West  Level FlightAware Approximate
11:10PM 47.7114 -119.4157 277° West  Level FlightAware Approximate
11:11PM 47.7205 -119.5320 277° West  Level FlightAware Approximate
11:12PM 47.7297 -119.6483 277° West  Level FlightAware Approximate
11:13PM 47.7388 -119.7646 277° West  Level FlightAware Approximate
11:14PM 47.7477 -119.8810 277° West  Level FlightAware Approximate
11:15PM 47.7565 -119.9974 276° West  Level FlightAware Approximate
11:16PM 47.7652 -120.1138 276° West  Level FlightAware Approximate
11:17PM 47.7834 -120.2251 270° West  Level FlightAware Approximate
11:18PM 47.7841 -120.3422 278° West  Level FlightAware Approximate
11:19PM 47.7947 -120.4584 278° West  Level FlightAware Approximate
11:20PM 47.8039 -120.5748 276° West  Level FlightAware Approximate
11:21PM 47.8117 -120.6915 276° West  Level FlightAware Approximate
11:22PM 47.8188 -120.8082 277° West  Level FlightAware Approximate
11:23PM 47.8285 -120.9246 277° West  Level FlightAware Approximate
11:24PM 47.8333 -121.0415 270° West  Level FlightAware Approximate
11:25PM 47.8467 -121.1570 281° West  Level FlightAware Approximate
11:26PM 47.8565 -121.2734 276° West  Level FlightAware Approximate
11:27PM 47.8648 -121.3901 276° West  Level FlightAware Approximate
11:28PM 47.8727 -121.5069 276° West  Level FlightAware Approximate
11:29PM 47.8805 -121.6237 276° West  Level FlightAware Approximate
11:30PM 47.8597 -121.7236 214° Southwest  Level FlightAware Approximate
11:31PM 47.7981 -121.7977 228° Southwest  Level FlightAware Approximate
11:32PM 47.7437 -121.8845 225° Southwest  Level FlightAware Approximate
11:33PM 47.6823 -121.9674 222° Southwest  Level FlightAware Approximate
11:34PM 47.6237 -122.0546 214° Southwest  Level Estimated
11:35PM 47.5651 -122.1416 270° West  Level Estimated
11:36PM 47.4927 -122.2177 228° Southwest  Level FlightAware Approximate
11:37PM 47.4333 -122.3000 222° Southwest  Level FlightAware Approximate
11:38PM 47.4499 -122.3118 222° Southwest  Level Estimated
11:39PM 47.4499 -122.3118 211° Southwest  Level Estimated
11:40PM 47.4499 -122.3118 211° Southwest  Level Estimated
11:41PM 47.4499 -122.3118 211° Southwest  Level Estimated
11:42PM 47.4499 -122.3118 211° Southwest  Level Estimated
11:43PM 47.4499 -122.3118 211° Southwest  Level Estimated
11:44PM 47.4499 -122.3118 211° Southwest  Level Estimated
11:45PM 47.4499 -122.3118 211° Southwest  Level Estimated
11:46PM 47.4499 -122.3118 211° Southwest  Level Estimated
11:47PM 47.4499 -122.3118 211° Southwest  Level Estimated
11:48PM 47.4499 -122.3118 211° Southwest  Level Estimated
11:49PM 47.4499 -122.3118 211° Southwest  Level Estimated
11:50PM 47.4499 -122.3118 211° Southwest  Level Estimated
11:51PM 47.4499 -122.3118 211° Southwest  Level Estimated
11:52PM 47.4499 -122.3118 211° Southwest  Level Estimated
11:53PM 47.4499 -122.3118 211° Southwest  Level Estimated
11:54PM 47.4499 -122.3118 211° Southwest  Level Estimated
11:55PM 47.4499 -122.3118 211° Southwest  Level Estimated
11:56PM 47.4499 -122.3118 211° Southwest  Level Estimated
11:57PM 47.4499 -122.3118 211° Southwest  Level Estimated
11:58PM 47.4499 -122.3118 211° Southwest  Level Estimated
11:59PM 47.4499 -122.3118 211° Southwest  Level Estimated